Terminal Aerodrome Forecast
Issued by NWS Brownsville, TX

Home | Current Version | Previous Version | Text Only | Print | Product List | Glossary On
Versions: 1 2 3 4 5 6 7 8 9 10 11 12
000
FTUS44 KBRO 280520
TAFBRO
TAF
KBRO 280520Z 2806/2906 18003KT P6SM SKC
      TEMPO 2809/2812 6SM BR
     FM281600 16015G20KT P6SM SKC
     FM290100 15010KT P6SM SKC=

USA.gov is the U.S. government's official web portal to all federal, state and local government web resources and services.